Dorp Nikiboko, Netherlands

8:11 PM AST on April 29, 2017 (GMT -0400)
Nikiboko | | Change Station

Elev 33 ft 12.15 °N, 68.27 °W | Updated 14 minutes ago

Clear
Clear
81.5 °F
Feels Like 89 °F
N
8.0
Wind Variable Wind from ESE
Gusts 16.0 mph

Today
High -- | Low -- °F
--% Chance of Precip.
Yesterday
High -- | Low -- °F
Precip. -- in
Pressure 29.86 in
Visibility 6.2 miles
Clouds
Heat Index 89 °F
Dew Point 76 °F
Humidity 84%
Rainfall 0.00 in
Snow Depth Not available.
6:14 AM 6:46 PM
Waxing Crescent, 17% visible
METAR TNCB 292355Z AUTO 08018KT 9999 NCD 27/24 Q1011
Pressure 29.86 in
Visibility 6.2 miles
Clouds
Heat Index 89 °F
Dew Point 76 °F
Humidity 84%
Rainfall 0.00 in
Snow Depth Not available.
6:14 AM 6:46 PM
Waxing Crescent, 17% visible
METAR TNCB 292355Z AUTO 08018KT 9999 NCD 27/24 Q1011

Get Severe Weather Alerts

Thanks for signing up!

Be on the lookout for a verification email in your inbox.

You'll start receiving the daily forecast at 8 AM.

×

10-Day Weather Forecast

×

Almanac

Astronomy

Apr. 29, 2017 Rise Set
Actual Time
Civil Twilight
Nautical Twilight
Astronomical Twilight
Moon
Length of Visible Light
Length of Day
Tomorrow will be .
, % of the Moon is Illuminated

Today's Extremes

Country Highs Country Lows

Community

WunderPhotos

WunderBlog® & News

Nearby

Air Quality

  Air Quality AQ Index Pollutant
Not available.

Snow Depth

Station Depth Elevation

Earthquake Activity

City Distance Mag. Time & Date
Minimum magnitude displayed is 2.5.

Coastal Water Temperatures

Place Temperature

Stations

Nearby Weather Stations

Station Location Temp. Windchill Dew Point Humidity Wind Precip. Elev Updated Type